sensor_id;sensor_type;location;lat;lon;timestamp;P1;durP1;ratioP1;P2;durP2;ratioP2
54123;SDS011;55741;53.252;5.788;2022-08-01T00:00:33;9.02;;;4.82;;
54123;SDS011;55741;53.252;5.788;2022-08-01T00:02:58;8.88;;;4.63;;
54123;SDS011;55741;53.252;5.788;2022-08-01T00:05:26;12.40;;;5.30;;
54123;SDS011;55741;53.252;5.788;2022-08-01T00:07:52;12.13;;;4.32;;
54123;SDS011;55741;53.252;5.788;2022-08-01T00:10:18;12.88;;;5.40;;
54123;SDS011;55741;53.252;5.788;2022-08-01T00:12:44;9.57;;;6.45;;
54123;SDS011;55741;53.252;5.788;2022-08-01T00:15:11;11.43;;;6.38;;
54123;SDS011;55741;53.252;5.788;2022-08-01T00:17:39;11.90;;;6.43;;
54123;SDS011;55741;53.252;5.788;2022-08-01T00:20:06;12.02;;;5.97;;
54123;SDS011;55741;53.252;5.788;2022-08-01T00:22:33;8.18;;;5.10;;
54123;SDS011;55741;53.252;5.788;2022-08-01T00:25:00;8.77;;;4.57;;
54123;SDS011;55741;53.252;5.788;2022-08-01T00:27:26;7.32;;;4.38;;
54123;SDS011;55741;53.252;5.788;2022-08-01T00:29:52;10.10;;;4.68;;
54123;SDS011;55741;53.252;5.788;2022-08-01T00:32:18;12.98;;;4.30;;
54123;SDS011;55741;53.252;5.788;2022-08-01T00:34:44;11.48;;;4.45;;
54123;SDS011;55741;53.252;5.788;2022-08-01T00:37:10;11.23;;;4.60;;
54123;SDS011;55741;53.252;5.788;2022-08-01T00:39:36;8.25;;;3.88;;
54123;SDS011;55741;53.252;5.788;2022-08-01T00:42:08;10.25;;;3.83;;
54123;SDS011;55741;53.252;5.788;2022-08-01T00:44:35;13.23;;;3.85;;
54123;SDS011;55741;53.252;5.788;2022-08-01T00:47:02;8.48;;;3.92;;
54123;SDS011;55741;53.252;5.788;2022-08-01T00:49:28;9.63;;;3.90;;
54123;SDS011;55741;53.252;5.788;2022-08-01T00:51:55;8.10;;;3.75;;
54123;SDS011;55741;53.252;5.788;2022-08-01T00:54:22;8.85;;;3.92;;
54123;SDS011;55741;53.252;5.788;2022-08-01T00:56:49;10.75;;;3.75;;
54123;SDS011;55741;53.252;5.788;2022-08-01T00:59:16;7.03;;;3.22;;
54123;SDS011;55741;53.252;5.788;2022-08-01T01:01:43;10.80;;;3.65;;
54123;SDS011;55741;53.252;5.788;2022-08-01T01:04:09;9.95;;;3.03;;
54123;SDS011;55741;53.252;5.788;2022-08-01T01:09:26;9.45;;;2.67;;
54123;SDS011;55741;53.252;5.788;2022-08-01T01:12:10;6.43;;;2.40;;
54123;SDS011;55741;53.252;5.788;2022-08-01T01:15:00;12.70;;;3.00;;
54123;SDS011;55741;53.252;5.788;2022-08-01T01:18:07;13.05;;;4.00;;
54123;SDS011;55741;53.252;5.788;2022-08-01T01:20:39;20.98;;;4.85;;
54123;SDS011;55741;53.252;5.788;2022-08-01T01:26:00;17.88;;;5.30;;
54123;SDS011;55741;53.252;5.788;2022-08-01T01:31:32;17.75;;;4.13;;
54123;SDS011;55741;53.252;5.788;2022-08-01T01:34:05;11.10;;;3.97;;
54123;SDS011;55741;53.252;5.788;2022-08-01T01:36:33;17.20;;;4.88;;
54123;SDS011;55741;53.252;5.788;2022-08-01T01:39:00;13.60;;;4.05;;
54123;SDS011;55741;53.252;5.788;2022-08-01T01:41:26;13.10;;;4.32;;
54123;SDS011;55741;53.252;5.788;2022-08-01T01:43:54;18.50;;;5.68;;
54123;SDS011;55741;53.252;5.788;2022-08-01T01:46:22;18.48;;;4.40;;
54123;SDS011;55741;53.252;5.788;2022-08-01T01:48:52;20.67;;;4.45;;
54123;SDS011;55741;53.252;5.788;2022-08-01T01:51:20;20.58;;;4.40;;
54123;SDS011;55741;53.252;5.788;2022-08-01T01:53:47;23.80;;;4.65;;
54123;SDS011;55741;53.252;5.788;2022-08-01T01:56:14;20.85;;;4.90;;
54123;SDS011;55741;53.252;5.788;2022-08-01T01:58:42;16.27;;;4.50;;
54123;SDS011;55741;53.252;5.788;2022-08-01T02:01:09;14.07;;;4.05;;
54123;SDS011;55741;53.252;5.788;2022-08-01T02:03:37;14.57;;;3.50;;
54123;SDS011;55741;53.252;5.788;2022-08-01T02:06:05;15.65;;;4.30;;
54123;SDS011;55741;53.252;5.788;2022-08-01T02:08:33;15.10;;;4.50;;
54123;SDS011;55741;53.252;5.788;2022-08-01T02:11:00;13.45;;;3.80;;
54123;SDS011;55741;53.252;5.788;2022-08-01T02:14:01;17.58;;;4.47;;
54123;SDS011;55741;53.252;5.788;2022-08-01T02:16:29;19.38;;;4.72;;
54123;SDS011;55741;53.252;5.788;2022-08-01T02:19:00;17.95;;;4.15;;
54123;SDS011;55741;53.252;5.788;2022-08-01T02:21:28;12.82;;;4.40;;
54123;SDS011;55741;53.252;5.788;2022-08-01T02:24:00;25.63;;;4.53;;
54123;SDS011;55741;53.252;5.788;2022-08-01T02:26:48;17.30;;;4.68;;
54123;SDS011;55741;53.252;5.788;2022-08-01T02:29:34;11.48;;;4.88;;
54123;SDS011;55741;53.252;5.788;2022-08-01T02:32:04;15.68;;;4.50;;
54123;SDS011;55741;53.252;5.788;2022-08-01T02:34:32;14.15;;;3.97;;
54123;SDS011;55741;53.252;5.788;2022-08-01T02:37:00;13.73;;;4.10;;
54123;SDS011;55741;53.252;5.788;2022-08-01T02:39:28;15.80;;;4.45;;
54123;SDS011;55741;53.252;5.788;2022-08-01T02:41:57;12.70;;;4.10;;
54123;SDS011;55741;53.252;5.788;2022-08-01T02:44:30;17.65;;;3.75;;
54123;SDS011;55741;53.252;5.788;2022-08-01T02:47:00;14.75;;;4.55;;
54123;SDS011;55741;53.252;5.788;2022-08-01T02:49:31;12.90;;;4.30;;
54123;SDS011;55741;53.252;5.788;2022-08-01T02:52:01;12.13;;;3.80;;
54123;SDS011;55741;53.252;5.788;2022-08-01T02:54:31;20.85;;;3.90;;
54123;SDS011;55741;53.252;5.788;2022-08-01T02:57:00;15.43;;;4.15;;
54123;SDS011;55741;53.252;5.788;2022-08-01T02:59:27;18.05;;;4.30;;
54123;SDS011;55741;53.252;5.788;2022-08-01T03:01:55;18.73;;;3.90;;
54123;SDS011;55741;53.252;5.788;2022-08-01T03:04:24;12.57;;;3.85;;
54123;SDS011;55741;53.252;5.788;2022-08-01T03:06:52;11.13;;;3.40;;
54123;SDS011;55741;53.252;5.788;2022-08-01T03:09:25;13.98;;;4.10;;
54123;SDS011;55741;53.252;5.788;2022-08-01T03:11:52;12.80;;;4.07;;
54123;SDS011;55741;53.252;5.788;2022-08-01T03:14:19;11.13;;;3.60;;
54123;SDS011;55741;53.252;5.788;2022-08-01T03:16:46;16.52;;;3.78;;
54123;SDS011;55741;53.252;5.788;2022-08-01T03:19:14;18.98;;;4.45;;
54123;SDS011;55741;53.252;5.788;2022-08-01T03:21:43;17.48;;;4.13;;
54123;SDS011;55741;53.252;5.788;2022-08-01T03:24:10;19.05;;;5.10;;
54123;SDS011;55741;53.252;5.788;2022-08-01T03:26:38;25.35;;;5.00;;
54123;SDS011;55741;53.252;5.788;2022-08-01T03:29:06;21.10;;;5.22;;
54123;SDS011;55741;53.252;5.788;2022-08-01T03:31:36;25.05;;;4.68;;
54123;SDS011;55741;53.252;5.788;2022-08-01T03:34:03;21.42;;;4.40;;
54123;SDS011;55741;53.252;5.788;2022-08-01T03:36:30;22.67;;;4.75;;
54123;SDS011;55741;53.252;5.788;2022-08-01T03:38:59;20.95;;;5.05;;
54123;SDS011;55741;53.252;5.788;2022-08-01T03:41:29;26.52;;;4.82;;
54123;SDS011;55741;53.252;5.788;2022-08-01T03:44:07;32.70;;;4.90;;
54123;SDS011;55741;53.252;5.788;2022-08-01T03:46:44;24.73;;;5.05;;
54123;SDS011;55741;53.252;5.788;2022-08-01T03:49:17;24.77;;;5.57;;
54123;SDS011;55741;53.252;5.788;2022-08-01T03:51:46;16.70;;;4.28;;
54123;SDS011;55741;53.252;5.788;2022-08-01T03:54:15;25.25;;;4.75;;
54123;SDS011;55741;53.252;5.788;2022-08-01T03:56:45;18.33;;;4.22;;
54123;SDS011;55741;53.252;5.788;2022-08-01T03:59:14;16.40;;;3.83;;
54123;SDS011;55741;53.252;5.788;2022-08-01T04:01:41;18.95;;;4.25;;
54123;SDS011;55741;53.252;5.788;2022-08-01T04:04:09;16.02;;;4.97;;
54123;SDS011;55741;53.252;5.788;2022-08-01T04:06:38;28.52;;;4.80;;
54123;SDS011;55741;53.252;5.788;2022-08-01T04:09:06;28.80;;;4.90;;
54123;SDS011;55741;53.252;5.788;2022-08-01T04:11:34;14.80;;;4.50;;
54123;SDS011;55741;53.252;5.788;2022-08-01T04:14:00;25.42;;;4.80;;
54123;SDS011;55741;53.252;5.788;2022-08-01T04:16:26;19.70;;;4.50;;
54123;SDS011;55741;53.252;5.788;2022-08-01T04:18:51;23.15;;;3.95;;
54123;SDS011;55741;53.252;5.788;2022-08-01T04:21:18;21.15;;;4.05;;
54123;SDS011;55741;53.252;5.788;2022-08-01T04:23:48;16.85;;;4.05;;
54123;SDS011;55741;53.252;5.788;2022-08-01T04:26:17;28.08;;;5.35;;
54123;SDS011;55741;53.252;5.788;2022-08-01T04:28:44;25.98;;;4.78;;
54123;SDS011;55741;53.252;5.788;2022-08-01T04:31:11;32.25;;;5.47;;
54123;SDS011;55741;53.252;5.788;2022-08-01T04:33:42;24.95;;;4.78;;
54123;SDS011;55741;53.252;5.788;2022-08-01T04:36:19;17.52;;;4.03;;
54123;SDS011;55741;53.252;5.788;2022-08-01T04:38:49;22.65;;;4.32;;
54123;SDS011;55741;53.252;5.788;2022-08-01T04:41:19;29.00;;;5.10;;
54123;SDS011;55741;53.252;5.788;2022-08-01T04:43:49;22.27;;;4.32;;
54123;SDS011;55741;53.252;5.788;2022-08-01T04:46:16;23.23;;;4.18;;
54123;SDS011;55741;53.252;5.788;2022-08-01T04:48:44;22.23;;;4.72;;
54123;SDS011;55741;53.252;5.788;2022-08-01T04:51:14;28.27;;;4.68;;
54123;SDS011;55741;53.252;5.788;2022-08-01T04:53:40;20.00;;;4.22;;
54123;SDS011;55741;53.252;5.788;2022-08-01T04:56:07;19.38;;;4.00;;
54123;SDS011;55741;53.252;5.788;2022-08-01T04:58:34;21.17;;;4.85;;
54123;SDS011;55741;53.252;5.788;2022-08-01T05:01:00;19.00;;;4.40;;
54123;SDS011;55741;53.252;5.788;2022-08-01T05:03:26;21.75;;;4.32;;
54123;SDS011;55741;53.252;5.788;2022-08-01T05:05:51;22.40;;;4.50;;
54123;SDS011;55741;53.252;5.788;2022-08-01T05:08:17;24.50;;;4.53;;
54123;SDS011;55741;53.252;5.788;2022-08-01T05:10:43;19.75;;;3.83;;
54123;SDS011;55741;53.252;5.788;2022-08-01T05:13:10;19.30;;;4.63;;
54123;SDS011;55741;53.252;5.788;2022-08-01T05:15:36;18.00;;;4.10;;
54123;SDS011;55741;53.252;5.788;2022-08-01T05:18:02;23.45;;;4.85;;
54123;SDS011;55741;53.252;5.788;2022-08-01T05:20:28;25.13;;;4.63;;
54123;SDS011;55741;53.252;5.788;2022-08-01T05:22:54;22.75;;;4.72;;
54123;SDS011;55741;53.252;5.788;2022-08-01T05:25:20;26.35;;;4.43;;
54123;SDS011;55741;53.252;5.788;2022-08-01T05:27:46;25.73;;;5.20;;
54123;SDS011;55741;53.252;5.788;2022-08-01T05:30:12;18.27;;;4.25;;
54123;SDS011;55741;53.252;5.788;2022-08-01T05:32:38;18.05;;;4.15;;
54123;SDS011;55741;53.252;5.788;2022-08-01T05:35:04;21.02;;;4.85;;
54123;SDS011;55741;53.252;5.788;2022-08-01T05:37:31;19.50;;;4.22;;
54123;SDS011;55741;53.252;5.788;2022-08-01T05:39:57;15.60;;;4.10;;
54123;SDS011;55741;53.252;5.788;2022-08-01T05:42:22;22.75;;;4.93;;
54123;SDS011;55741;53.252;5.788;2022-08-01T05:44:48;25.85;;;4.63;;
54123;SDS011;55741;53.252;5.788;2022-08-01T05:47:16;18.33;;;4.97;;
54123;SDS011;55741;53.252;5.788;2022-08-01T05:49:42;19.42;;;4.30;;
54123;SDS011;55741;53.252;5.788;2022-08-01T05:52:08;17.75;;;4.15;;
54123;SDS011;55741;53.252;5.788;2022-08-01T05:54:34;23.23;;;4.22;;
54123;SDS011;55741;53.252;5.788;2022-08-01T05:57:00;22.30;;;4.28;;
54123;SDS011;55741;53.252;5.788;2022-08-01T05:59:29;16.83;;;3.85;;
54123;SDS011;55741;53.252;5.788;2022-08-01T06:01:55;13.63;;;4.10;;
54123;SDS011;55741;53.252;5.788;2022-08-01T06:04:21;21.80;;;3.72;;
54123;SDS011;55741;53.252;5.788;2022-08-01T06:06:47;17.77;;;3.60;;
54123;SDS011;55741;53.252;5.788;2022-08-01T06:09:13;16.23;;;4.43;;
54123;SDS011;55741;53.252;5.788;2022-08-01T06:11:39;16.13;;;4.07;;
54123;SDS011;55741;53.252;5.788;2022-08-01T06:14:07;15.93;;;3.47;;
54123;SDS011;55741;53.252;5.788;2022-08-01T06:16:33;19.05;;;2.95;;
54123;SDS011;55741;53.252;5.788;2022-08-01T06:18:59;17.60;;;3.42;;
54123;SDS011;55741;53.252;5.788;2022-08-01T06:21:25;21.40;;;4.35;;
54123;SDS011;55741;53.252;5.788;2022-08-01T06:23:51;16.45;;;3.83;;
54123;SDS011;55741;53.252;5.788;2022-08-01T06:26:17;17.55;;;3.33;;
54123;SDS011;55741;53.252;5.788;2022-08-01T06:28:44;14.98;;;2.90;;
54123;SDS011;55741;53.252;5.788;2022-08-01T06:31:09;16.15;;;3.53;;
54123;SDS011;55741;53.252;5.788;2022-08-01T06:33:37;17.23;;;3.83;;
54123;SDS011;55741;53.252;5.788;2022-08-01T06:36:03;15.00;;;3.35;;
54123;SDS011;55741;53.252;5.788;2022-08-01T06:38:29;14.75;;;3.42;;
54123;SDS011;55741;53.252;5.788;2022-08-01T06:40:55;16.50;;;4.20;;
54123;SDS011;55741;53.252;5.788;2022-08-01T06:43:21;17.67;;;3.35;;
54123;SDS011;55741;53.252;5.788;2022-08-01T06:45:47;13.07;;;2.97;;
54123;SDS011;55741;53.252;5.788;2022-08-01T06:48:13;18.95;;;3.47;;
54123;SDS011;55741;53.252;5.788;2022-08-01T06:50:39;18.70;;;3.50;;
54123;SDS011;55741;53.252;5.788;2022-08-01T06:53:05;15.65;;;3.92;;
54123;SDS011;55741;53.252;5.788;2022-08-01T06:55:31;15.07;;;3.00;;
54123;SDS011;55741;53.252;5.788;2022-08-01T06:57:57;18.73;;;3.75;;
54123;SDS011;55741;53.252;5.788;2022-08-01T07:00:23;16.58;;;3.13;;
54123;SDS011;55741;53.252;5.788;2022-08-01T07:02:51;15.82;;;3.33;;
54123;SDS011;55741;53.252;5.788;2022-08-01T07:05:21;19.80;;;3.25;;
54123;SDS011;55741;53.252;5.788;2022-08-01T07:07:47;15.68;;;3.50;;
54123;SDS011;55741;53.252;5.788;2022-08-01T07:10:13;16.40;;;3.80;;
54123;SDS011;55741;53.252;5.788;2022-08-01T07:12:39;12.85;;;3.10;;
54123;SDS011;55741;53.252;5.788;2022-08-01T07:15:08;13.25;;;3.20;;
54123;SDS011;55741;53.252;5.788;2022-08-01T07:17:41;10.57;;;3.05;;
54123;SDS011;55741;53.252;5.788;2022-08-01T07:20:09;13.65;;;2.70;;
54123;SDS011;55741;53.252;5.788;2022-08-01T07:22:36;11.70;;;2.83;;
54123;SDS011;55741;53.252;5.788;2022-08-01T07:25:03;13.55;;;3.20;;
54123;SDS011;55741;53.252;5.788;2022-08-01T07:27:30;12.50;;;2.83;;
54123;SDS011;55741;53.252;5.788;2022-08-01T07:29:56;15.07;;;2.90;;
54123;SDS011;55741;53.252;5.788;2022-08-01T07:32:22;14.20;;;3.00;;
54123;SDS011;55741;53.252;5.788;2022-08-01T07:34:48;14.02;;;3.50;;
54123;SDS011;55741;53.252;5.788;2022-08-01T07:37:14;14.30;;;3.28;;
54123;SDS011;55741;53.252;5.788;2022-08-01T07:39:39;11.77;;;2.78;;
54123;SDS011;55741;53.252;5.788;2022-08-01T07:42:05;13.43;;;3.15;;
54123;SDS011;55741;53.252;5.788;2022-08-01T07:44:31;16.90;;;2.95;;
54123;SDS011;55741;53.252;5.788;2022-08-01T07:46:57;12.48;;;3.17;;
54123;SDS011;55741;53.252;5.788;2022-08-01T07:49:23;10.52;;;2.95;;
54123;SDS011;55741;53.252;5.788;2022-08-01T07:51:49;14.23;;;2.95;;
54123;SDS011;55741;53.252;5.788;2022-08-01T07:54:15;11.68;;;2.97;;
54123;SDS011;55741;53.252;5.788;2022-08-01T07:56:41;17.83;;;3.17;;
54123;SDS011;55741;53.252;5.788;2022-08-01T07:59:06;12.30;;;2.88;;
54123;SDS011;55741;53.252;5.788;2022-08-01T08:01:32;14.50;;;2.42;;
54123;SDS011;55741;53.252;5.788;2022-08-01T08:03:58;16.10;;;3.35;;
54123;SDS011;55741;53.252;5.788;2022-08-01T08:06:24;11.88;;;3.20;;
54123;SDS011;55741;53.252;5.788;2022-08-01T08:08:50;10.48;;;2.47;;
54123;SDS011;55741;53.252;5.788;2022-08-01T08:11:15;13.02;;;2.83;;
54123;SDS011;55741;53.252;5.788;2022-08-01T08:13:41;9.52;;;2.50;;
54123;SDS011;55741;53.252;5.788;2022-08-01T08:16:09;13.20;;;2.65;;
54123;SDS011;55741;53.252;5.788;2022-08-01T08:18:35;10.18;;;2.47;;
54123;SDS011;55741;53.252;5.788;2022-08-01T08:21:01;13.32;;;3.00;;
54123;SDS011;55741;53.252;5.788;2022-08-01T08:23:27;12.02;;;2.85;;
54123;SDS011;55741;53.252;5.788;2022-08-01T08:26:11;15.27;;;2.90;;
54123;SDS011;55741;53.252;5.788;2022-08-01T08:28:37;15.05;;;3.78;;
54123;SDS011;55741;53.252;5.788;2022-08-01T08:31:03;15.20;;;2.78;;
54123;SDS011;55741;53.252;5.788;2022-08-01T08:33:29;13.02;;;2.90;;
54123;SDS011;55741;53.252;5.788;2022-08-01T08:35:55;12.48;;;3.40;;
54123;SDS011;55741;53.252;5.788;2022-08-01T08:38:23;11.30;;;2.63;;
54123;SDS011;55741;53.252;5.788;2022-08-01T08:40:52;12.00;;;2.92;;
54123;SDS011;55741;53.252;5.788;2022-08-01T08:43:18;11.52;;;2.60;;
54123;SDS011;55741;53.252;5.788;2022-08-01T08:45:44;15.70;;;2.95;;
54123;SDS011;55741;53.252;5.788;2022-08-01T08:48:11;13.73;;;2.70;;
54123;SDS011;55741;53.252;5.788;2022-08-01T08:50:38;12.02;;;2.80;;
54123;SDS011;55741;53.252;5.788;2022-08-01T08:53:06;10.55;;;2.75;;
54123;SDS011;55741;53.252;5.788;2022-08-01T08:55:38;7.78;;;2.38;;
54123;SDS011;55741;53.252;5.788;2022-08-01T08:58:05;9.70;;;2.67;;
54123;SDS011;55741;53.252;5.788;2022-08-01T09:00:32;11.88;;;2.97;;
54123;SDS011;55741;53.252;5.788;2022-08-01T09:02:59;12.38;;;2.40;;
54123;SDS011;55741;53.252;5.788;2022-08-01T09:05:25;13.32;;;3.00;;
54123;SDS011;55741;53.252;5.788;2022-08-01T09:07:52;10.63;;;2.83;;
54123;SDS011;55741;53.252;5.788;2022-08-01T09:10:18;9.63;;;2.95;;
54123;SDS011;55741;53.252;5.788;2022-08-01T09:13:03;6.90;;;3.13;;
54123;SDS011;55741;53.252;5.788;2022-08-01T09:15:37;12.20;;;2.60;;
54123;SDS011;55741;53.252;5.788;2022-08-01T09:18:27;11.77;;;2.30;;
54123;SDS011;55741;53.252;5.788;2022-08-01T09:21:07;14.45;;;2.85;;
54123;SDS011;55741;53.252;5.788;2022-08-01T09:23:33;13.02;;;2.60;;
54123;SDS011;55741;53.252;5.788;2022-08-01T09:26:08;16.42;;;2.22;;
54123;SDS011;55741;53.252;5.788;2022-08-01T09:28:35;8.70;;;2.40;;
54123;SDS011;55741;53.252;5.788;2022-08-01T09:31:05;8.30;;;2.40;;
54123;SDS011;55741;53.252;5.788;2022-08-01T09:36:43;9.25;;;2.35;;
54123;SDS011;55741;53.252;5.788;2022-08-01T09:39:16;11.77;;;2.70;;
54123;SDS011;55741;53.252;5.788;2022-08-01T09:41:44;9.77;;;2.15;;
54123;SDS011;55741;53.252;5.788;2022-08-01T09:44:11;7.75;;;2.03;;
54123;SDS011;55741;53.252;5.788;2022-08-01T09:46:53;8.82;;;2.03;;
54123;SDS011;55741;53.252;5.788;2022-08-01T09:49:27;7.95;;;2.13;;
54123;SDS011;55741;53.252;5.788;2022-08-01T09:51:55;12.18;;;2.60;;
54123;SDS011;55741;53.252;5.788;2022-08-01T09:54:32;7.18;;;2.00;;
54123;SDS011;55741;53.252;5.788;2022-08-01T09:57:15;10.90;;;2.80;;
54123;SDS011;55741;53.252;5.788;2022-08-01T09:59:43;10.60;;;3.47;;
54123;SDS011;55741;53.252;5.788;2022-08-01T10:02:11;8.52;;;2.35;;
54123;SDS011;55741;53.252;5.788;2022-08-01T10:04:49;7.07;;;2.20;;
54123;SDS011;55741;53.252;5.788;2022-08-01T10:07:16;10.13;;;2.60;;
54123;SDS011;55741;53.252;5.788;2022-08-01T10:09:43;12.18;;;2.22;;
54123;SDS011;55741;53.252;5.788;2022-08-01T10:12:10;6.63;;;2.25;;
54123;SDS011;55741;53.252;5.788;2022-08-01T10:14:39;8.20;;;2.13;;
54123;SDS011;55741;53.252;5.788;2022-08-01T10:17:07;9.93;;;2.50;;
54123;SDS011;55741;53.252;5.788;2022-08-01T10:19:37;7.32;;;2.10;;
54123;SDS011;55741;53.252;5.788;2022-08-01T10:22:10;8.57;;;2.00;;
54123;SDS011;55741;53.252;5.788;2022-08-01T10:24:41;7.35;;;1.75;;
54123;SDS011;55741;53.252;5.788;2022-08-01T10:27:08;6.90;;;1.75;;
54123;SDS011;55741;53.252;5.788;2022-08-01T10:29:43;11.15;;;2.13;;
54123;SDS011;55741;53.252;5.788;2022-08-01T10:32:22;11.40;;;2.05;;
54123;SDS011;55741;53.252;5.788;2022-08-01T10:34:52;8.00;;;2.38;;
54123;SDS011;55741;53.252;5.788;2022-08-01T10:37:20;9.65;;;2.20;;
54123;SDS011;55741;53.252;5.788;2022-08-01T10:39:46;7.65;;;2.10;;
54123;SDS011;55741;53.252;5.788;2022-08-01T10:42:12;8.35;;;2.30;;
54123;SDS011;55741;53.252;5.788;2022-08-01T10:44:38;8.57;;;2.05;;
54123;SDS011;55741;53.252;5.788;2022-08-01T10:47:08;6.85;;;2.05;;
54123;SDS011;55741;53.252;5.788;2022-08-01T10:49:39;8.13;;;1.88;;
54123;SDS011;55741;53.252;5.788;2022-08-01T10:52:16;8.43;;;1.90;;
54123;SDS011;55741;53.252;5.788;2022-08-01T10:54:43;9.18;;;2.33;;
54123;SDS011;55741;53.252;5.788;2022-08-01T10:57:10;7.93;;;2.05;;
54123;SDS011;55741;53.252;5.788;2022-08-01T10:59:50;11.23;;;2.30;;
54123;SDS011;55741;53.252;5.788;2022-08-01T11:02:25;7.13;;;2.15;;
54123;SDS011;55741;53.252;5.788;2022-08-01T11:07:48;11.55;;;2.42;;
54123;SDS011;55741;53.252;5.788;2022-08-01T11:10:20;12.27;;;2.20;;
54123;SDS011;55741;53.252;5.788;2022-08-01T11:12:51;9.48;;;2.25;;
54123;SDS011;55741;53.252;5.788;2022-08-01T11:15:18;5.82;;;2.03;;
54123;SDS011;55741;53.252;5.788;2022-08-01T11:17:50;9.30;;;2.20;;
54123;SDS011;55741;53.252;5.788;2022-08-01T11:30:45;7.63;;;2.20;;
54123;SDS011;55741;53.252;5.788;2022-08-01T11:33:47;7.07;;;2.00;;
54123;SDS011;55741;53.252;5.788;2022-08-01T11:38:45;6.13;;;2.35;;
54123;SDS011;55741;53.252;5.788;2022-08-01T11:41:13;8.40;;;2.13;;
54123;SDS011;55741;53.252;5.788;2022-08-01T11:52:14;10.43;;;2.33;;
54123;SDS011;55741;53.252;5.788;2022-08-01T11:57:12;6.10;;;2.00;;
54123;SDS011;55741;53.252;5.788;2022-08-01T11:59:50;6.40;;;1.67;;
54123;SDS011;55741;53.252;5.788;2022-08-01T12:05:06;7.28;;;2.45;;
54123;SDS011;55741;53.252;5.788;2022-08-01T12:07:35;5.90;;;1.77;;
54123;SDS011;55741;53.252;5.788;2022-08-01T12:10:06;6.85;;;2.00;;
54123;SDS011;55741;53.252;5.788;2022-08-01T12:12:34;5.85;;;2.28;;
54123;SDS011;55741;53.252;5.788;2022-08-01T12:15:02;9.70;;;2.28;;
54123;SDS011;55741;53.252;5.788;2022-08-01T12:17:34;14.02;;;4.22;;
54123;SDS011;55741;53.252;5.788;2022-08-01T12:20:10;8.65;;;2.10;;
54123;SDS011;55741;53.252;5.788;2022-08-01T12:22:39;8.10;;;2.55;;
54123;SDS011;55741;53.252;5.788;2022-08-01T12:27:32;8.07;;;2.30;;
54123;SDS011;55741;53.252;5.788;2022-08-01T12:29:59;6.70;;;2.00;;
54123;SDS011;55741;53.252;5.788;2022-08-01T12:32:26;8.15;;;2.58;;
54123;SDS011;55741;53.252;5.788;2022-08-01T12:34:56;7.63;;;2.10;;
54123;SDS011;55741;53.252;5.788;2022-08-01T12:37:50;8.13;;;2.47;;
54123;SDS011;55741;53.252;5.788;2022-08-01T12:40:19;7.97;;;2.30;;
54123;SDS011;55741;53.252;5.788;2022-08-01T12:42:48;8.73;;;2.35;;
54123;SDS011;55741;53.252;5.788;2022-08-01T12:45:19;8.68;;;2.75;;
54123;SDS011;55741;53.252;5.788;2022-08-01T12:47:49;6.22;;;2.20;;
54123;SDS011;55741;53.252;5.788;2022-08-01T12:50:17;7.45;;;2.05;;
54123;SDS011;55741;53.252;5.788;2022-08-01T12:52:45;8.50;;;2.47;;
54123;SDS011;55741;53.252;5.788;2022-08-01T12:55:21;9.45;;;2.47;;
54123;SDS011;55741;53.252;5.788;2022-08-01T12:57:50;6.78;;;2.10;;
54123;SDS011;55741;53.252;5.788;2022-08-01T13:00:29;8.20;;;2.10;;
54123;SDS011;55741;53.252;5.788;2022-08-01T13:03:05;9.63;;;2.30;;
54123;SDS011;55741;53.252;5.788;2022-08-01T13:08:12;6.18;;;2.00;;
54123;SDS011;55741;53.252;5.788;2022-08-01T13:10:39;9.45;;;2.40;;
54123;SDS011;55741;53.252;5.788;2022-08-01T13:13:05;7.72;;;2.35;;
54123;SDS011;55741;53.252;5.788;2022-08-01T13:15:34;11.27;;;2.30;;
54123;SDS011;55741;53.252;5.788;2022-08-01T13:18:21;8.52;;;2.63;;
54123;SDS011;55741;53.252;5.788;2022-08-01T13:20:48;10.20;;;2.10;;
54123;SDS011;55741;53.252;5.788;2022-08-01T13:23:17;11.15;;;2.90;;
54123;SDS011;55741;53.252;5.788;2022-08-01T13:26:02;7.68;;;2.10;;
54123;SDS011;55741;53.252;5.788;2022-08-01T13:30:57;9.75;;;2.13;;
54123;SDS011;55741;53.252;5.788;2022-08-01T13:33:25;6.20;;;2.03;;
54123;SDS011;55741;53.252;5.788;2022-08-01T13:35:54;6.88;;;2.53;;
54123;SDS011;55741;53.252;5.788;2022-08-01T13:38:21;8.43;;;2.50;;
54123;SDS011;55741;53.252;5.788;2022-08-01T13:41:06;10.55;;;2.20;;
54123;SDS011;55741;53.252;5.788;2022-08-01T13:43:33;6.88;;;2.38;;
54123;SDS011;55741;53.252;5.788;2022-08-01T13:46:00;8.63;;;2.97;;
54123;SDS011;55741;53.252;5.788;2022-08-01T13:48:29;8.52;;;2.70;;
54123;SDS011;55741;53.252;5.788;2022-08-01T13:50:55;7.93;;;2.08;;
54123;SDS011;55741;53.252;5.788;2022-08-01T13:53:21;4.90;;;1.90;;
54123;SDS011;55741;53.252;5.788;2022-08-01T13:55:47;7.03;;;2.20;;
54123;SDS011;55741;53.252;5.788;2022-08-01T13:58:13;8.00;;;2.47;;
54123;SDS011;55741;53.252;5.788;2022-08-01T14:00:38;8.07;;;1.80;;
54123;SDS011;55741;53.252;5.788;2022-08-01T14:03:04;6.95;;;1.80;;
54123;SDS011;55741;53.252;5.788;2022-08-01T14:05:30;8.50;;;2.00;;
54123;SDS011;55741;53.252;5.788;2022-08-01T14:07:56;6.22;;;2.08;;
54123;SDS011;55741;53.252;5.788;2022-08-01T14:10:23;6.00;;;1.98;;
54123;SDS011;55741;53.252;5.788;2022-08-01T14:12:49;8.38;;;2.20;;
54123;SDS011;55741;53.252;5.788;2022-08-01T14:15:15;8.05;;;2.03;;
54123;SDS011;55741;53.252;5.788;2022-08-01T14:17:41;5.80;;;1.65;;
54123;SDS011;55741;53.252;5.788;2022-08-01T14:20:07;9.30;;;2.20;;
54123;SDS011;55741;53.252;5.788;2022-08-01T14:22:33;12.40;;;2.00;;
54123;SDS011;55741;53.252;5.788;2022-08-01T14:25:01;9.93;;;2.10;;
54123;SDS011;55741;53.252;5.788;2022-08-01T14:27:28;7.50;;;2.40;;
54123;SDS011;55741;53.252;5.788;2022-08-01T14:29:56;8.93;;;1.77;;
54123;SDS011;55741;53.252;5.788;2022-08-01T14:32:22;10.43;;;2.10;;
54123;SDS011;55741;53.252;5.788;2022-08-01T14:34:48;5.70;;;2.13;;
54123;SDS011;55741;53.252;5.788;2022-08-01T14:37:14;6.47;;;1.98;;
54123;SDS011;55741;53.252;5.788;2022-08-01T14:39:40;6.10;;;1.80;;
54123;SDS011;55741;53.252;5.788;2022-08-01T14:42:05;9.25;;;2.30;;
54123;SDS011;55741;53.252;5.788;2022-08-01T14:44:31;7.38;;;2.17;;
54123;SDS011;55741;53.252;5.788;2022-08-01T14:46:57;6.93;;;2.20;;
54123;SDS011;55741;53.252;5.788;2022-08-01T14:49:23;8.43;;;2.03;;
54123;SDS011;55741;53.252;5.788;2022-08-01T14:51:48;6.82;;;1.88;;
54123;SDS011;55741;53.252;5.788;2022-08-01T14:54:14;9.57;;;2.42;;
54123;SDS011;55741;53.252;5.788;2022-08-01T14:56:40;8.25;;;1.92;;
54123;SDS011;55741;53.252;5.788;2022-08-01T14:59:06;6.72;;;2.15;;
54123;SDS011;55741;53.252;5.788;2022-08-01T15:01:32;6.88;;;2.28;;
54123;SDS011;55741;53.252;5.788;2022-08-01T15:03:57;6.07;;;2.10;;
54123;SDS011;55741;53.252;5.788;2022-08-01T15:06:23;8.30;;;2.22;;
54123;SDS011;55741;53.252;5.788;2022-08-01T15:08:49;8.13;;;2.20;;
54123;SDS011;55741;53.252;5.788;2022-08-01T15:11:15;6.00;;;2.20;;
54123;SDS011;55741;53.252;5.788;2022-08-01T15:13:41;7.13;;;1.90;;
54123;SDS011;55741;53.252;5.788;2022-08-01T15:16:07;7.15;;;2.30;;
54123;SDS011;55741;53.252;5.788;2022-08-01T15:18:33;7.07;;;2.25;;
54123;SDS011;55741;53.252;5.788;2022-08-01T15:20:58;8.77;;;2.40;;
54123;SDS011;55741;53.252;5.788;2022-08-01T15:23:24;13.60;;;7.43;;
54123;SDS011;55741;53.252;5.788;2022-08-01T15:25:51;9.75;;;1.98;;
54123;SDS011;55741;53.252;5.788;2022-08-01T15:28:17;9.50;;;2.42;;
54123;SDS011;55741;53.252;5.788;2022-08-01T15:30:45;7.00;;;2.13;;
54123;SDS011;55741;53.252;5.788;2022-08-01T15:33:11;9.55;;;2.20;;
54123;SDS011;55741;53.252;5.788;2022-08-01T15:35:37;8.18;;;2.40;;